Time;durP1;ratioP1;P1;durP2;ratioP2;P2;SDS_P1;SDS_P2;PMS_P1;PMS_P2;Temp;Humidity;BMP_temperature;BMP_pressure;BME280_temperature;BME280_humidity;BME280_pressure;Samples;Min_cycle;Max_cycle;Signal;HPM_P1;HPM_P2
2022/03/25 00:01:47;;;;;;;0.30;0.20;;;;;;;4.28;80.94;101327.22;5087984;28;20477;-49
2022/03/25 00:04:17;;;;;;;0.30;0.30;;;;;;;4.49;80.36;101326.59;5083308;28;20445;-49
2022/03/25 00:06:43;;;;;;;0.37;0.33;;;;;;;4.32;79.81;101334.28;5080909;28;20850;-48
2022/03/25 00:09:10;;;;;;;0.30;0.20;;;;;;;4.27;80.64;101316.66;5085647;28;20457;-49
2022/03/25 00:11:37;;;;;;;0.70;0.70;;;;;;;4.39;79.77;101330.00;5087550;28;20891;-48
2022/03/25 00:14:03;;;;;;;4.83;2.10;;;;;;;4.31;80.78;101332.50;5074512;28;20437;-49
2022/03/25 00:16:30;;;;;;;0.30;0.20;;;;;;;4.32;80.89;101333.41;5083795;28;20796;-49
2022/03/25 00:18:56;;;;;;;1.07;1.07;;;;;;;4.37;80.91;101335.22;5083209;28;20542;-49
2022/03/25 00:21:23;;;;;;;0.40;0.40;;;;;;;4.43;80.86;101323.91;5075861;28;20475;-49
2022/03/25 00:23:50;;;;;;;8.40;2.93;;;;;;;4.52;80.38;101329.25;5083183;28;20468;-49
2022/03/25 00:26:17;;;;;;;0.90;0.90;;;;;;;4.50;79.60;101324.84;5080499;28;20493;-49
2022/03/25 00:28:44;;;;;;;0.93;0.93;;;;;;;4.20;79.94;101333.22;5084841;28;20450;-48
2022/03/25 00:31:10;;;;;;;0.60;0.60;;;;;;;4.09;80.49;101325.16;5087040;28;20518;-49
2022/03/25 00:33:38;;;;;;;0.83;0.83;;;;;;;4.05;81.56;101326.00;5083649;28;20536;-49
2022/03/25 00:36:05;;;;;;;1.07;1.07;;;;;;;4.09;82.16;101325.16;5080810;28;20453;-49
2022/03/25 00:38:32;;;;;;;0.30;0.20;;;;;;;4.06;82.62;101323.38;5084449;28;20449;-48
2022/03/25 00:40:59;;;;;;;0.30;0.17;;;;;;;3.92;82.60;101331.94;5088005;28;20483;-48
2022/03/25 00:43:26;;;;;;;0.30;0.30;;;;;;;3.76;84.19;101330.81;5085127;28;20448;-48
2022/03/25 00:45:52;;;;;;;0.40;0.33;;;;;;;4.01;83.27;101316.31;5080992;28;20491;-49
2022/03/25 00:48:19;;;;;;;0.30;0.10;;;;;;;4.01;81.74;101311.03;5066986;28;21021;-49
2022/03/25 00:50:46;;;;;;;0.30;0.20;;;;;;;3.78;82.51;101322.09;5087174;28;20445;-48
2022/03/25 00:53:12;;;;;;;0.30;0.20;;;;;;;3.83;81.74;101323.03;5085269;28;20449;-48
2022/03/25 00:55:39;;;;;;;0.30;0.20;;;;;;;3.72;82.40;101319.38;5080639;28;20445;-48
2022/03/25 00:58:05;;;;;;;0.53;0.53;;;;;;;3.83;83.17;101320.41;5080994;28;21624;-49
2022/03/25 01:00:33;;;;;;;0.60;0.60;;;;;;;3.64;82.72;101315.72;5083911;28;20511;-49
2022/03/25 01:02:59;;;;;;;0.30;0.10;;;;;;;3.90;82.77;101315.25;5092872;28;20512;-48
2022/03/25 01:05:26;;;;;;;5.10;1.53;;;;;;;3.82;81.88;101320.38;5077269;28;21013;-49
2022/03/25 01:07:53;;;;;;;0.97;0.97;;;;;;;3.76;83.22;101320.28;5082993;28;20492;-48
2022/03/25 01:10:19;;;;;;;0.30;0.20;;;;;;;3.55;83.18;101313.81;5080255;28;20469;-48
2022/03/25 01:12:46;;;;;;;0.30;0.10;;;;;;;3.50;83.76;101326.00;5085054;28;20470;-49
2022/03/25 01:15:13;;;;;;;0.30;0.10;;;;;;;3.47;84.45;101320.72;5086576;28;20454;-48
2022/03/25 01:17:39;;;;;;;0.30;0.20;;;;;;;3.46;84.04;101321.56;5076112;28;20450;-49
2022/03/25 01:20:09;;;;;;;1.63;1.63;;;;;;;3.48;83.81;101321.59;5087020;28;20814;-49
2022/03/25 01:22:35;;;;;;;0.30;0.20;;;;;;;3.37;84.10;101317.91;5083165;28;20477;-49
2022/03/25 01:25:02;;;;;;;0.43;0.43;;;;;;;3.41;85.04;101311.81;5080083;28;20473;-49
2022/03/25 01:27:29;;;;;;;1.07;1.07;;;;;;;3.21;85.28;101312.38;5084267;28;20446;-48
2022/03/25 01:29:56;;;;;;;0.30;0.10;;;;;;;3.19;84.66;101323.72;5086937;28;20449;-48
2022/03/25 01:32:23;;;;;;;0.30;0.10;;;;;;;3.23;85.19;101315.91;5076972;28;20513;-48
2022/03/25 01:34:51;;;;;;;0.30;0.13;;;;;;;3.34;84.98;101313.47;5087883;28;20472;-49
2022/03/25 01:37:17;;;;;;;0.30;0.13;;;;;;;3.21;85.59;101312.38;5084120;28;20550;-49
2022/03/25 01:39:44;;;;;;;1.27;0.97;;;;;;;3.31;84.99;101316.06;5080325;28;20964;-49
2022/03/25 01:42:11;;;;;;;0.30;0.10;;;;;;;3.37;85.11;101310.00;5083084;28;20508;-49
2022/03/25 01:44:37;;;;;;;0.30;0.20;;;;;;;3.26;84.69;101305.44;5086640;28;20446;-49
2022/03/25 01:47:08;;;;;;;0.80;0.40;;;;;;;3.15;85.40;101314.91;5066932;28;20823;-49
2022/03/25 01:49:35;;;;;;;0.50;0.50;;;;;;;3.13;84.81;101313.09;5076565;28;20972;-48
2022/03/25 01:52:03;;;;;;;0.30;0.20;;;;;;;3.22;84.51;101319.41;5081534;28;20477;-49
2022/03/25 01:54:32;;;;;;;0.30;0.20;;;;;;;3.04;86.16;101308.56;5087134;28;20454;-49
2022/03/25 01:57:05;;;;;;;0.30;0.20;;;;;;;3.01;86.57;101313.75;5085553;28;20449;-49
2022/03/25 01:59:33;;;;;;;1.87;0.80;;;;;;;2.86;87.42;101309.09;5084214;28;20453;-49
2022/03/25 02:02:02;;;;;;;0.30;0.20;;;;;;;2.89;86.65;101314.41;5093653;28;20475;-49
2022/03/25 02:04:29;;;;;;;0.30;0.20;;;;;;;2.99;85.90;101304.94;5076987;28;20469;-49
2022/03/25 02:06:56;;;;;;;0.57;0.53;;;;;;;2.91;86.20;101306.56;5074315;28;20454;-49
2022/03/25 02:09:24;;;;;;;2.50;2.30;;;;;;;3.02;86.47;101307.66;5077130;28;20487;-49
2022/03/25 02:11:51;;;;;;;0.20;0.20;;;;;;;3.04;86.71;101305.06;5084264;28;20465;-49
2022/03/25 02:14:19;;;;;;;0.40;0.40;;;;;;;2.89;86.01;101309.16;5086631;28;20445;-48
2022/03/25 02:16:47;;;;;;;0.30;0.30;;;;;;;2.88;86.89;101303.91;5071787;28;21006;-48
2022/03/25 02:19:18;;;;;;;0.20;0.10;;;;;;;2.87;86.77;101307.34;5084495;28;20453;-48
2022/03/25 02:21:47;;;;;;;0.20;0.10;;;;;;;2.87;86.89;101309.97;5085468;28;20518;-48
2022/03/25 02:24:14;;;;;;;1.63;0.70;;;;;;;2.76;87.30;101301.03;5060132;28;20453;-49
2022/03/25 02:26:42;;;;;;;0.60;0.60;;;;;;;2.75;87.30;101301.88;5086251;28;20498;-49
2022/03/25 02:29:11;;;;;;;0.30;0.20;;;;;;;2.71;87.55;101300.03;5086413;28;20450;-48
2022/03/25 02:31:37;;;;;;;0.20;0.10;;;;;;;2.66;88.07;101297.34;5086218;28;20563;-48
2022/03/25 02:34:07;;;;;;;1.17;1.17;;;;;;;2.66;87.87;101297.34;5080315;28;20508;-49
2022/03/25 02:36:37;;;;;;;0.30;0.20;;;;;;;2.65;87.79;101293.81;5086487;28;20488;-48
2022/03/25 02:39:05;;;;;;;0.30;0.30;;;;;;;2.61;88.28;101302.50;5081380;28;20482;-49
2022/03/25 02:41:32;;;;;;;0.23;0.17;;;;;;;2.62;88.38;101300.75;5079162;28;20469;-49
2022/03/25 02:43:59;;;;;;;0.30;0.30;;;;;;;2.57;88.15;101303.28;5084587;28;20934;-49
2022/03/25 02:46:26;;;;;;;0.87;0.87;;;;;;;2.60;88.19;101298.09;5086311;28;20671;-49
2022/03/25 02:48:53;;;;;;;0.97;0.97;;;;;;;2.47;88.24;101303.03;5085979;28;20449;-49
2022/03/25 02:51:20;;;;;;;0.30;0.20;;;;;;;2.57;88.63;101298.03;5083481;28;20880;-49
2022/03/25 02:53:46;;;;;;;0.20;0.13;;;;;;;2.46;88.02;101296.91;5087854;28;20496;-48
2022/03/25 02:56:13;;;;;;;0.20;0.10;;;;;;;2.48;89.51;101307.47;5090550;28;20488;-48
2022/03/25 02:58:40;;;;;;;0.20;0.10;;;;;;;2.46;88.79;101312.66;5082749;28;20449;-48
2022/03/25 03:01:06;;;;;;;0.30;0.20;;;;;;;2.45;88.51;101308.25;5085708;28;20465;-49
2022/03/25 03:03:34;;;;;;;0.20;0.10;;;;;;;2.44;89.44;101306.50;5080805;28;20446;-48
2022/03/25 03:06:00;;;;;;;0.20;0.20;;;;;;;2.35;88.81;101301.97;5083979;28;20472;-49
2022/03/25 03:08:28;;;;;;;0.30;0.20;;;;;;;2.45;88.31;101305.63;5090166;28;20448;-49
2022/03/25 03:10:55;;;;;;;2.57;1.33;;;;;;;2.48;88.15;101304.84;5085606;28;20445;-48
2022/03/25 03:13:22;;;;;;;0.30;0.20;;;;;;;2.40;88.71;101298.53;5082735;28;20458;-48
2022/03/25 03:15:49;;;;;;;0.20;0.10;;;;;;;2.39;88.56;101305.53;5086803;28;20489;-49
2022/03/25 03:18:16;;;;;;;0.20;0.10;;;;;;;2.36;87.79;101302.84;5089469;28;20449;-49
2022/03/25 03:20:42;;;;;;;0.20;0.10;;;;;;;2.27;88.88;101300.91;5086416;28;20482;-48
2022/03/25 03:23:09;;;;;;;0.50;0.50;;;;;;;2.33;90.14;101302.75;5082698;28;20491;-48
2022/03/25 03:25:36;;;;;;;0.30;0.10;;;;;;;2.33;89.45;101300.13;5085979;28;20446;-49
2022/03/25 03:28:04;;;;;;;0.30;0.30;;;;;;;2.28;88.93;101302.66;5090225;28;20463;-48
2022/03/25 03:30:31;;;;;;;0.20;0.10;;;;;;;2.16;88.55;101301.50;5086739;28;20444;-49
2022/03/25 03:32:58;;;;;;;0.20;0.10;;;;;;;2.13;89.84;101298.84;5082415;28;20515;-48
2022/03/25 03:35:25;;;;;;;0.30;0.20;;;;;;;2.12;89.66;101300.56;5085606;28;20486;-49
2022/03/25 03:37:53;;;;;;;0.30;0.20;;;;;;;2.10;89.36;101298.78;5089488;28;20446;-49
2022/03/25 03:40:20;;;;;;;0.30;0.30;;;;;;;2.08;89.93;101299.63;5087088;28;20448;-49
2022/03/25 03:42:47;;;;;;;0.33;0.30;;;;;;;2.19;89.55;101309.44;5077853;28;20986;-49
2022/03/25 03:45:14;;;;;;;1.87;1.43;;;;;;;2.15;89.97;101308.50;5087753;28;20449;-49
2022/03/25 03:47:44;;;;;;;0.47;0.43;;;;;;;2.17;89.44;101309.41;5074037;28;20476;-48
2022/03/25 03:50:13;;;;;;;0.30;0.20;;;;;;;2.18;89.01;101305.94;5083880;28;20805;-48
2022/03/25 03:52:40;;;;;;;0.30;0.20;;;;;;;1.99;89.00;101307.28;5089069;28;20466;-48
2022/03/25 03:55:09;;;;;;;0.30;0.30;;;;;;;1.94;89.74;101308.94;5088726;28;20449;-48
2022/03/25 03:57:36;;;;;;;0.30;0.20;;;;;;;2.02;89.66;101303.84;5082594;28;20503;-48
2022/03/25 04:00:06;;;;;;;0.30;0.20;;;;;;;1.92;90.37;101302.75;5082203;28;20450;-48
2022/03/25 04:02:32;;;;;;;2.20;0.93;;;;;;;1.87;89.53;101307.00;5088319;28;20902;-48
2022/03/25 04:04:59;;;;;;;0.30;0.20;;;;;;;1.91;89.86;101306.22;5076452;28;20451;-49
2022/03/25 04:07:25;;;;;;;5.50;3.00;;;;;;;1.87;90.08;101308.72;5089469;28;20522;-48
2022/03/25 04:09:52;;;;;;;0.20;0.20;;;;;;;1.92;89.92;101302.75;5081307;28;20445;-48
2022/03/25 04:12:19;;;;;;;0.20;0.20;;;;;;;1.97;90.33;101310.72;5083390;28;20471;-48
2022/03/25 04:14:46;;;;;;;0.20;0.10;;;;;;;1.93;90.09;101309.78;5081501;28;20507;-48
2022/03/25 04:17:12;;;;;;;0.30;0.20;;;;;;;1.93;89.96;101317.63;5083287;28;20560;-48
2022/03/25 04:19:39;;;;;;;0.20;0.10;;;;;;;1.90;90.00;101312.31;5071394;28;20527;-48
2022/03/25 04:22:06;;;;;;;0.20;0.10;;;;;;;1.82;90.60;101313.88;5084750;28;20461;-48
2022/03/25 04:24:33;;;;;;;0.50;0.50;;;;;;;1.82;90.34;101318.25;5081754;28;20458;-48
2022/03/25 04:27:00;;;;;;;0.20;0.20;;;;;;;1.80;89.94;101318.22;5085752;28;20499;-48
2022/03/25 04:29:26;;;;;;;0.30;0.20;;;;;;;1.80;91.41;101323.44;5088653;28;20480;-48
2022/03/25 04:31:53;;;;;;;2.43;2.33;;;;;;;1.81;91.25;101319.09;5084238;28;20469;-48
2022/03/25 04:34:20;;;;;;;0.63;0.63;;;;;;;1.82;90.66;101319.13;5081450;28;20450;-48
2022/03/25 04:36:46;;;;;;;0.30;0.20;;;;;;;1.89;91.20;101313.16;5085899;28;20493;-48
2022/03/25 04:39:13;;;;;;;0.20;0.10;;;;;;;1.91;89.75;101324.56;5090809;28;20445;-48
2022/03/25 04:41:39;;;;;;;1.00;1.00;;;;;;;1.74;91.39;101318.03;5085614;28;20496;-48
2022/03/25 04:44:07;;;;;;;0.20;0.10;;;;;;;1.82;90.97;101326.97;5088166;28;20456;-48
2022/03/25 04:46:35;;;;;;;0.20;0.10;;;;;;;1.69;90.92;101320.56;5075064;28;20443;-48
2022/03/25 04:49:01;;;;;;;0.30;0.20;;;;;;;1.61;90.78;101326.47;5084737;28;20515;-48
2022/03/25 04:51:28;;;;;;;1.23;0.73;;;;;;;1.61;91.60;101329.97;5074975;28;20488;-48
2022/03/25 04:53:55;;;;;;;0.63;0.60;;;;;;;1.57;91.94;101319.38;5087580;28;20446;-48
2022/03/25 04:56:21;;;;;;;0.30;0.10;;;;;;;1.71;91.72;101326.72;5085074;28;20591;-49
2022/03/25 04:58:48;;;;;;;0.30;0.30;;;;;;;1.54;92.37;101329.78;5077658;28;20442;-53
2022/03/25 05:01:15;;;;;;;0.20;0.20;;;;;;;1.55;92.25;101332.44;5084035;28;20468;-48
2022/03/25 05:03:42;;;;;;;0.20;0.10;;;;;;;1.55;91.24;101328.94;5080929;28;21015;-48
2022/03/25 05:06:09;;;;;;;0.20;0.10;;;;;;;1.63;91.98;101338.75;5084131;28;20468;-51
2022/03/25 05:08:35;;;;;;;0.20;0.10;;;;;;;1.69;90.94;101340.66;5087143;28;20442;-48
2022/03/25 05:11:04;;;;;;;0.57;0.57;;;;;;;1.50;91.36;101336.66;5083409;28;20571;-48
2022/03/25 05:13:31;;;;;;;0.53;0.53;;;;;;;1.45;91.08;101339.19;5080545;28;20476;-48
2022/03/25 05:15:57;;;;;;;0.97;0.97;;;;;;;1.42;92.05;101344.34;5083514;28;20543;-48
2022/03/25 05:18:24;;;;;;;0.20;0.10;;;;;;;1.39;91.80;101343.38;5087842;28;20527;-48
2022/03/25 05:20:51;;;;;;;0.30;0.30;;;;;;;1.29;93.00;101346.63;5085535;28;20444;-48
2022/03/25 05:23:17;;;;;;;0.30;0.20;;;;;;;1.42;92.49;101349.59;5080581;28;20510;-48
2022/03/25 05:25:44;;;;;;;0.47;0.37;;;;;;;1.44;92.09;101349.63;5082733;28;20457;-48
2022/03/25 05:28:11;;;;;;;0.97;0.97;;;;;;;1.38;93.52;101342.50;5087693;28;20445;-48
2022/03/25 05:30:37;;;;;;;0.30;0.20;;;;;;;1.55;92.68;101350.78;5085347;28;20449;-48
2022/03/25 05:33:04;;;;;;;0.20;0.10;;;;;;;1.41;92.46;101353.06;5080772;28;20485;-48
2022/03/25 05:35:32;;;;;;;0.20;0.13;;;;;;;1.35;93.78;101357.22;5082076;28;20446;-48
2022/03/25 05:37:59;;;;;;;0.20;0.20;;;;;;;1.42;93.37;101352.22;5079212;28;20845;-48
2022/03/25 05:40:26;;;;;;;0.40;0.40;;;;;;;1.42;93.44;101348.69;5082029;28;20519;-49
2022/03/25 05:42:55;;;;;;;0.20;0.10;;;;;;;1.46;93.65;101364.53;5087345;28;20466;-48
2022/03/25 05:45:23;;;;;;;7.07;2.47;;;;;;;1.56;93.22;101362.16;5086483;28;20445;-48
2022/03/25 05:47:50;;;;;;;0.20;0.20;;;;;;;1.60;92.83;101366.59;5064936;28;20950;-48
2022/03/25 05:50:18;;;;;;;1.90;1.90;;;;;;;1.65;93.06;101365.00;5086636;28;20808;-48
2022/03/25 05:52:44;;;;;;;0.20;0.10;;;;;;;1.63;93.80;101369.28;5060216;28;20473;-48
2022/03/25 05:55:16;;;;;;;0.20;0.10;;;;;;;1.73;94.30;101376.56;5087100;28;20505;-50
2022/03/25 05:57:44;;;;;;;2.37;2.20;;;;;;;1.82;93.70;101373.28;5081101;28;20487;-48
2022/03/25 06:00:13;;;;;;;0.20;0.10;;;;;;;1.87;94.04;101377.78;5079436;28;20874;-48
2022/03/25 06:02:42;;;;;;;5.30;0.97;;;;;;;1.92;94.32;101377.88;5085048;28;20838;-48
2022/03/25 06:05:10;;;;;;;8.03;1.70;;;;;;;2.03;93.21;101377.28;5086300;28;21014;-48
2022/03/25 06:07:41;;;;;;;0.30;0.30;;;;;;;2.17;92.94;101374.09;5082344;28;20445;-49
2022/03/25 06:10:12;;;;;;;0.20;0.10;;;;;;;2.26;92.23;101374.31;5079543;28;20440;-49
2022/03/25 06:12:39;;;;;;;0.20;0.10;;;;;;;2.31;91.49;101367.41;5082261;28;20484;-48
2022/03/25 06:15:07;;;;;;;0.30;0.30;;;;;;;2.45;92.09;101378.22;5086428;28;20469;-48
2022/03/25 06:17:48;;;;;;;0.57;0.57;;;;;;;2.53;92.96;101376.66;5084348;28;20514;-50
2022/03/25 06:20:18;;;;;;;0.20;0.13;;;;;;;2.64;92.58;101381.28;5079750;28;20449;-48
2022/03/25 06:22:46;;;;;;;0.30;0.20;;;;;;;2.83;92.34;101376.41;5079657;28;20474;-48
2022/03/25 06:25:13;;;;;;;2.57;1.17;;;;;;;2.85;92.87;101385.19;5086740;28;20449;-48
2022/03/25 06:27:51;;;;;;;0.30;0.30;;;;;;;2.96;92.55;101381.94;5086417;28;20894;-48
2022/03/25 06:30:20;;;;;;;0.30;0.30;;;;;;;3.25;90.86;101382.50;5081489;28;20444;-49
2022/03/25 06:32:47;;;;;;;3.20;1.93;;;;;;;3.27;90.72;101377.25;5078730;28;20518;-48
2022/03/25 06:35:14;;;;;;;1.07;1.07;;;;;;;3.23;92.31;101378.97;5083581;28;20738;-48
2022/03/25 06:37:41;;;;;;;1.17;1.17;;;;;;;3.47;91.69;101382.91;5085919;28;20485;-48
2022/03/25 06:40:08;;;;;;;0.60;0.60;;;;;;;3.58;91.05;101383.09;5082201;28;20472;-48
2022/03/25 06:42:37;;;;;;;0.30;0.20;;;;;;;3.78;90.49;101382.56;5079116;28;20496;-48
2022/03/25 06:45:07;;;;;;;2.03;1.93;;;;;;;3.87;89.49;101387.09;5083198;28;20813;-48
2022/03/25 06:47:34;;;;;;;0.20;0.20;;;;;;;4.00;87.82;101385.56;5068135;28;20445;-48
2022/03/25 06:50:02;;;;;;;0.23;0.20;;;;;;;4.05;87.90;101381.25;5082628;28;20930;-48
2022/03/25 06:52:30;;;;;;;0.20;0.10;;;;;;;4.06;87.43;101386.53;5077424;28;20469;-48
2022/03/25 06:54:56;;;;;;;1.57;1.57;;;;;;;4.21;87.42;101387.63;5081416;28;20445;-48
2022/03/25 06:57:23;;;;;;;0.30;0.20;;;;;;;4.50;86.79;101385.41;5085548;28;20521;-48
2022/03/25 06:59:50;;;;;;;0.30;0.20;;;;;;;4.70;85.83;101391.81;5071726;28;20785;-49
2022/03/25 07:02:17;;;;;;;0.20;0.20;;;;;;;4.85;84.72;101386.75;5084943;28;20478;-48
2022/03/25 07:04:44;;;;;;;0.30;0.20;;;;;;;4.95;85.34;101387.75;5083984;28;20458;-48
2022/03/25 07:07:12;;;;;;;0.37;0.37;;;;;;;5.03;84.31;101391.34;5078476;28;20490;-48
2022/03/25 07:09:38;;;;;;;0.20;0.20;;;;;;;5.06;84.70;101391.38;5079350;28;20450;-48
2022/03/25 07:12:06;;;;;;;0.30;0.10;;;;;;;5.11;83.97;101392.34;5083713;28;20491;-49
2022/03/25 07:14:32;;;;;;;1.63;0.90;;;;;;;5.18;83.73;101403.81;5084381;28;20449;-48
2022/03/25 07:16:59;;;;;;;0.30;0.20;;;;;;;5.28;83.62;101398.66;5069807;28;20535;-49
2022/03/25 07:19:25;;;;;;;10.60;1.60;;;;;;;5.42;83.06;101403.22;5084842;28;20449;-48
2022/03/25 07:21:52;;;;;;;0.30;0.20;;;;;;;5.41;82.30;101407.59;5077930;28;20464;-50
2022/03/25 07:24:20;;;;;;;2.20;1.37;;;;;;;5.50;81.76;101402.44;5077950;28;20457;-48
2022/03/25 07:26:47;;;;;;;0.30;0.10;;;;;;;5.74;81.35;101404.38;5084675;28;20883;-49
2022/03/25 07:29:14;;;;;;;5.80;0.83;;;;;;;5.88;81.17;101405.41;5084859;28;20448;-49
2022/03/25 07:31:41;;;;;;;0.77;0.77;;;;;;;5.84;81.11;101408.88;5080504;28;20464;-49
2022/03/25 07:34:07;;;;;;;5.00;0.97;;;;;;;6.02;80.54;101402.91;5080946;28;20453;-49
2022/03/25 07:36:35;;;;;;;0.47;0.47;;;;;;;6.06;80.89;101407.34;5087254;28;20485;-49
2022/03/25 07:39:03;;;;;;;1.40;0.60;;;;;;;6.20;79.88;101400.44;5088585;28;20457;-49
2022/03/25 07:41:29;;;;;;;0.30;0.20;;;;;;;6.40;78.33;101397.03;5082864;28;20468;-48
2022/03/25 07:43:56;;;;;;;0.47;0.47;;;;;;;6.63;78.25;101400.69;5081636;28;20450;-49
2022/03/25 07:46:27;;;;;;;0.30;0.30;;;;;;;6.59;77.90;101405.97;5085973;28;20787;-49
2022/03/25 07:48:54;;;;;;;0.30;0.20;;;;;;;6.64;76.99;101402.44;5087431;28;20520;-49
2022/03/25 07:51:20;;;;;;;4.23;3.93;;;;;;;7.00;76.11;101403.50;5083865;28;20492;-48
2022/03/25 07:53:47;;;;;;;0.30;0.20;;;;;;;7.19;74.54;101402.69;5078371;28;20528;-49
2022/03/25 07:56:13;;;;;;;0.40;0.33;;;;;;;7.29;74.69;101409.78;5084482;28;20473;-49
2022/03/25 07:58:40;;;;;;;0.30;0.20;;;;;;;7.47;73.45;101408.06;5077802;28;20445;-49
2022/03/25 08:01:07;;;;;;;5.50;1.20;;;;;;;7.53;73.19;101411.56;5083557;28;20468;-49
2022/03/25 08:03:34;;;;;;;1.93;1.83;;;;;;;7.36;73.66;101408.91;5080667;28;20446;-49
2022/03/25 08:06:00;;;;;;;0.30;0.30;;;;;;;7.62;73.40;101402.78;5085748;28;20446;-49
2022/03/25 08:08:30;;;;;;;3.60;2.43;;;;;;;7.89;71.67;101401.94;5087541;28;20453;-49
2022/03/25 08:10:58;;;;;;;1.53;0.70;;;;;;;8.07;70.41;101401.91;5084097;28;20469;-49
2022/03/25 08:13:25;;;;;;;0.60;0.60;;;;;;;8.19;70.05;101401.03;5080646;28;20822;-49
2022/03/25 08:15:51;;;;;;;0.50;0.50;;;;;;;8.59;69.11;101401.88;5084188;28;20511;-49
2022/03/25 08:18:18;;;;;;;8.40;2.20;;;;;;;8.61;67.08;101395.69;5087499;28;20539;-49
2022/03/25 08:20:47;;;;;;;1.07;1.07;;;;;;;8.69;67.59;101402.75;5084715;28;20449;-49
2022/03/25 08:28:54;;;;;;;2.00;1.90;;;;;;;9.05;66.63;101404.38;5083051;28;20450;-49
2022/03/25 08:31:41;;;;;;;0.40;0.40;;;;;;;9.56;66.79;101403.19;5080985;28;20552;-49
2022/03/25 08:34:13;;;;;;;1.57;1.57;;;;;;;9.44;66.20;101400.63;5080278;28;20442;-49
2022/03/25 08:36:44;;;;;;;1.60;1.50;;;;;;;9.94;66.20;101394.97;5085935;28;20488;-49
2022/03/25 08:39:11;;;;;;;0.50;0.50;;;;;;;9.97;64.21;101402.03;5087347;28;20444;-49
2022/03/25 08:41:38;;;;;;;2.57;2.47;;;;;;;10.08;63.70;101401.03;5082294;28;20465;-49
2022/03/25 08:44:06;;;;;;;0.30;0.20;;;;;;;10.48;64.39;101403.34;5080101;28;20472;-49
2022/03/25 08:46:34;;;;;;;0.40;0.33;;;;;;;10.34;63.65;101395.53;5084462;28;20446;-49
2022/03/25 08:49:04;;;;;;;0.40;0.37;;;;;;;10.29;64.01;101396.47;5087385;28;20799;-49
2022/03/25 08:51:30;;;;;;;0.40;0.40;;;;;;;10.35;64.70;101399.94;5083857;28;20515;-49
2022/03/25 08:53:58;;;;;;;1.03;1.03;;;;;;;10.75;63.81;101399.53;5079929;28;20453;-49
2022/03/25 08:56:25;;;;;;;0.43;0.43;;;;;;;10.92;64.84;101397.53;5083519;28;20468;-49
2022/03/25 08:58:54;;;;;;;0.93;0.93;;;;;;;11.14;63.54;101399.94;5073252;28;20950;-49
2022/03/25 09:01:21;;;;;;;34.27;3.03;;;;;;;11.28;63.74;101398.84;5083801;28;20507;-49
2022/03/25 09:03:49;;;;;;;3.50;3.20;;;;;;;11.08;63.46;101400.88;5079785;28;20972;-49
2022/03/25 09:06:17;;;;;;;0.43;0.43;;;;;;;11.23;63.78;101399.78;5082189;28;20452;-49
2022/03/25 09:08:44;;;;;;;1.03;1.03;;;;;;;11.44;63.55;101398.63;5086492;28;20504;-49
2022/03/25 09:11:10;;;;;;;2.30;1.13;;;;;;;11.68;63.66;101398.28;5084715;28;20491;-49
2022/03/25 09:13:37;;;;;;;7.10;2.93;;;;;;;11.93;63.68;101393.47;5079651;28;20449;-49
2022/03/25 09:16:04;;;;;;;2.93;2.37;;;;;;;12.10;62.55;101403.84;5080997;28;20950;-49
2022/03/25 09:18:31;;;;;;;6.93;2.77;;;;;;;12.27;62.38;101395.56;5086121;28;20573;-50
2022/03/25 09:20:57;;;;;;;2.07;2.00;;;;;;;12.32;61.87;101396.34;5085376;28;20844;-49
2022/03/25 09:23:24;;;;;;;1.07;1.07;;;;;;;12.35;60.85;101394.53;5079155;28;20461;-49
2022/03/25 09:25:50;;;;;;;3.70;3.43;;;;;;;12.53;60.31;101398.63;5080559;28;20954;-49
2022/03/25 09:28:17;;;;;;;7.97;1.30;;;;;;;12.55;58.86;101396.81;5085412;28;20445;-49
2022/03/25 09:30:44;;;;;;;3.07;1.60;;;;;;;12.85;59.14;101397.13;5085512;28;20475;-50
2022/03/25 09:33:10;;;;;;;4.30;1.40;;;;;;;12.99;58.83;101395.03;5079458;28;20445;-54
2022/03/25 09:35:38;;;;;;;2.20;1.80;;;;;;;12.99;58.69;101393.25;5079792;28;20453;-49
2022/03/25 09:38:08;;;;;;;1.10;1.10;;;;;;;12.83;58.05;101402.50;5079493;28;20480;-49
2022/03/25 09:40:35;;;;;;;0.70;0.70;;;;;;;13.03;57.56;101405.66;5078828;28;20602;-49
2022/03/25 09:43:03;;;;;;;0.87;0.87;;;;;;;13.18;57.41;101395.56;5084754;28;20978;-49
2022/03/25 09:45:31;;;;;;;0.53;0.53;;;;;;;13.41;57.39;101395.06;5085870;28;20455;-49
2022/03/25 09:47:58;;;;;;;1.50;1.37;;;;;;;13.36;56.52;101392.50;5080415;28;20441;-50
2022/03/25 09:50:27;;;;;;;3.90;3.70;;;;;;;13.81;55.23;101390.56;5079519;28;20454;-50
2022/03/25 09:52:54;;;;;;;1.70;1.60;;;;;;;13.90;54.67;101393.00;5083727;28;20527;-50
2022/03/25 09:55:40;;;;;;;2.50;2.30;;;;;;;13.79;53.61;101392.38;5085259;28;20438;-50
2022/03/25 09:58:09;;;;;;;1.50;1.50;;;;;;;13.74;54.50;101390.75;5084251;28;20488;-50
2022/03/25 10:00:35;;;;;;;0.50;0.50;;;;;;;14.01;55.08;101387.41;5078378;28;20444;-49
2022/03/25 10:03:03;;;;;;;8.87;4.37;;;;;;;14.17;53.65;101391.44;5080522;28;20458;-50
2022/03/25 10:05:31;;;;;;;2.30;2.10;;;;;;;14.46;53.65;101389.81;5085208;28;21030;-49
2022/03/25 10:07:58;;;;;;;3.17;2.47;;;;;;;14.61;52.78;101388.53;5083986;28;20445;-50
2022/03/25 10:10:27;;;;;;;1.57;0.93;;;;;;;14.54;52.08;101392.31;5078488;28;20457;-50
2022/03/25 10:13:04;;;;;;;1.40;1.40;;;;;;;14.50;51.64;101380.78;5079112;28;20986;-50
2022/03/25 10:15:33;;;;;;;0.40;0.40;;;;;;;14.77;50.87;101390.72;5084416;28;20499;-50
2022/03/25 10:18:03;;;;;;;2.53;2.43;;;;;;;14.73;50.37;101383.72;5085361;28;20481;-49
2022/03/25 10:20:33;;;;;;;3.33;2.00;;;;;;;15.05;50.47;101380.09;5081022;28;20444;-50
2022/03/25 10:23:11;;;;;;;8.50;4.33;;;;;;;15.17;49.29;101381.53;5077954;28;20978;-50
2022/03/25 10:25:45;;;;;;;6.60;2.97;;;;;;;15.25;50.24;101376.84;5080936;28;20457;-50
2022/03/25 10:28:36;;;;;;;6.53;2.20;;;;;;;15.28;49.74;101381.22;5085272;28;20434;-50
2022/03/25 10:31:11;;;;;;;6.87;3.07;;;;;;;15.25;50.21;101381.31;5085310;28;20464;-50
2022/03/25 10:33:57;;;;;;;5.63;3.10;;;;;;;14.98;50.43;101375.88;5082072;28;20469;-50
2022/03/25 10:36:25;;;;;;;0.63;0.63;;;;;;;15.45;49.77;101373.53;5078284;28;20449;-50
2022/03/25 10:38:58;;;;;;;2.43;2.30;;;;;;;15.52;49.93;101375.13;5079118;28;20550;-50
2022/03/25 10:41:35;;;;;;;2.23;2.20;;;;;;;15.73;48.86;101370.00;5065249;28;20515;-50
2022/03/25 10:44:03;;;;;;;1.83;1.73;;;;;;;15.65;47.42;101371.16;5078614;28;20503;-49
2022/03/25 10:46:42;;;;;;;12.33;2.63;;;;;;;15.84;43.93;101375.91;5083727;28;20446;-49
2022/03/25 10:49:14;;;;;;;3.80;1.03;;;;;;;15.99;45.11;101378.06;5085764;28;20796;-49
2022/03/25 10:51:42;;;;;;;17.97;4.43;;;;;;;16.06;43.90;101373.41;5082318;28;20880;-50
2022/03/25 10:54:11;;;;;;;11.33;3.30;;;;;;;16.06;42.49;101368.03;5078381;28;20461;-49
2022/03/25 10:56:48;;;;;;;0.43;0.43;;;;;;;16.09;42.32;101370.59;5080011;28;20988;-49
2022/03/25 10:59:23;;;;;;;4.13;2.63;;;;;;;16.15;42.26;101375.75;5070182;28;20489;-49
2022/03/25 11:01:51;;;;;;;2.07;1.53;;;;;;;16.48;42.52;101371.03;5084878;28;20546;-49
2022/03/25 11:04:19;;;;;;;5.00;2.63;;;;;;;16.38;41.76;101361.53;5080086;28;20875;-49
2022/03/25 11:06:46;;;;;;;1.20;1.20;;;;;;;16.52;42.73;101361.94;5080141;28;20489;-49
2022/03/25 11:09:15;;;;;;;1.17;1.17;;;;;;;16.55;42.58;101364.50;5086459;28;20503;-49
2022/03/25 11:11:43;;;;;;;4.50;3.20;;;;;;;16.64;41.76;101360.63;5088888;28;20518;-49
2022/03/25 11:14:11;;;;;;;5.07;4.67;;;;;;;16.62;42.13;101349.94;5085157;28;20453;-50
2022/03/25 11:16:46;;;;;;;4.03;3.13;;;;;;;16.85;41.79;101351.78;5081833;28;20453;-50
2022/03/25 11:19:14;;;;;;;1.70;1.60;;;;;;;17.06;41.33;101356.34;5084466;28;20488;-50
2022/03/25 11:21:43;;;;;;;3.23;1.10;;;;;;;16.84;40.54;101361.66;5088997;28;20497;-50
2022/03/25 11:24:36;;;;;;;6.83;3.67;;;;;;;17.03;40.82;101351.09;5086672;28;20518;-50
2022/03/25 11:27:08;;;;;;;6.43;3.17;;;;;;;17.01;39.20;101360.16;5066327;28;20453;-52
2022/03/25 11:29:39;;;;;;;2.87;2.77;;;;;;;16.99;40.25;101356.63;5082524;28;20444;-50
2022/03/25 11:32:14;;;;;;;10.20;1.40;;;;;;;17.02;40.29;101353.84;5084921;28;20465;-49
2022/03/25 11:34:42;;;;;;;8.40;3.40;;;;;;;17.13;40.37;101354.28;5088114;28;20468;-50
2022/03/25 11:37:15;;;;;;;2.93;2.57;;;;;;;17.14;39.66;101353.38;5086414;28;20476;-49
2022/03/25 11:39:42;;;;;;;7.30;1.77;;;;;;;17.07;38.98;101343.78;5081036;28;20495;-49
2022/03/25 11:42:41;;;;;;;11.63;2.00;;;;;;;17.25;37.20;101347.56;5080458;28;20561;-49